Time;durP1;ratioP1;P1;durP2;ratioP2;P2;SDS_P1;SDS_P2;PMS_P1;PMS_P2;Temp;Humidity;BMP_temperature;BMP_pressure;BME280_temperature;BME280_humidity;BME280_pressure;Samples;Min_cycle;Max_cycle;Signal;HPM_P1;HPM_P2
2022/08/29 00:00:25;;;;;;;1.92;1.73;;;;;;;17.81;57.60;99143.16;4936692;29;20130;-71
2022/08/29 00:02:55;;;;;;;2.90;2.25;;;;;;;17.77;57.69;99147.34;4928810;29;20051;-71
2022/08/29 00:05:26;;;;;;;4.25;2.70;;;;;;;17.68;57.93;99144.16;4911952;29;20082;-71
2022/08/29 00:07:53;;;;;;;2.72;2.33;;;;;;;17.62;58.27;99144.25;4919643;29;20047;-70
2022/08/29 00:10:21;;;;;;;2.10;1.88;;;;;;;17.58;58.87;99133.22;4936525;29;20070;-69
2022/08/29 00:12:47;;;;;;;3.83;2.03;;;;;;;17.56;58.47;99140.66;4919725;29;20519;-69
2022/08/29 00:15:15;;;;;;;2.22;2.03;;;;;;;17.52;58.87;99142.16;4919399;29;20051;-69
2022/08/29 00:17:42;;;;;;;2.35;2.15;;;;;;;17.50;58.87;99139.69;4919236;29;20062;-68
2022/08/29 00:20:12;;;;;;;4.78;2.38;;;;;;;17.49;58.95;99138.06;4919355;29;20074;-69
2022/08/29 00:22:39;;;;;;;2.95;1.92;;;;;;;17.46;59.10;99132.38;4935056;29;20070;-70
2022/08/29 00:25:07;;;;;;;1.80;1.70;;;;;;;17.43;59.41;99143.50;4936252;29;20048;-69
2022/08/29 00:27:33;;;;;;;3.13;1.77;;;;;;;17.40;59.24;99141.31;4918783;29;20047;-70
2022/08/29 00:30:01;;;;;;;2.10;1.90;;;;;;;17.36;59.64;99148.97;4936039;29;20131;-70
2022/08/29 00:32:33;;;;;;;2.55;2.28;;;;;;;17.39;59.34;99142.34;4897644;29;20048;-70
2022/08/29 00:35:16;;;;;;;2.20;2.00;;;;;;;17.35;59.18;99142.00;4927327;29;20123;-69
2022/08/29 00:37:43;;;;;;;2.28;2.00;;;;;;;17.29;59.62;99149.06;4935702;29;20047;-71
2022/08/29 00:40:14;;;;;;;3.38;2.17;;;;;;;17.27;59.50;99137.81;4937038;29;20043;-69
2022/08/29 00:42:42;;;;;;;2.20;2.05;;;;;;;17.24;60.09;99140.09;4920841;29;20052;-69
2022/08/29 00:45:10;;;;;;;2.13;1.73;;;;;;;17.23;60.24;99151.84;4938563;29;20507;-69
2022/08/29 00:47:44;;;;;;;1.45;1.25;;;;;;;17.23;60.44;99154.53;4919649;29;20530;-69
2022/08/29 00:50:21;;;;;;;4.00;2.40;;;;;;;17.23;60.11;99152.66;4918794;29;20662;-68
2022/08/29 00:52:48;;;;;;;2.95;2.33;;;;;;;17.19;59.67;99148.00;4918551;29;20047;-69
2022/08/29 00:55:22;;;;;;;1.98;1.75;;;;;;;17.13;60.16;99151.56;4935648;29;20040;-68
2022/08/29 00:57:57;;;;;;;1.60;1.50;;;;;;;17.12;60.54;99148.06;4918517;29;20424;-70
2022/08/29 01:00:25;;;;;;;1.50;1.40;;;;;;;17.15;60.30;99144.16;4918165;29;20058;-70
2022/08/29 01:02:53;;;;;;;1.60;1.42;;;;;;;17.17;60.79;99153.53;4918861;29;20054;-70
2022/08/29 01:05:21;;;;;;;1.75;1.50;;;;;;;17.16;60.45;99153.78;4927349;29;20039;-68
2022/08/29 01:07:48;;;;;;;1.30;1.20;;;;;;;17.13;60.28;99156.91;4918205;29;20054;-70
2022/08/29 01:12:14;;;;;;;1.45;1.35;;;;;;;17.12;60.00;99160.63;4935478;29;20047;-70
2022/08/29 01:13:03;;;;;;;2.05;1.60;;;;;;;17.10;59.90;99158.16;4935138;29;20047;-70
2022/08/29 01:15:32;;;;;;;1.85;1.60;;;;;;;17.11;59.88;99161.66;4918210;29;20539;-70
2022/08/29 01:18:01;;;;;;;1.70;1.60;;;;;;;17.06;60.23;99162.31;4935179;29;20050;-69
2022/08/29 01:20:53;;;;;;;1.67;1.35;;;;;;;17.03;60.27;99160.13;4918054;29;20054;-70
2022/08/29 01:23:32;;;;;;;1.30;1.20;;;;;;;17.01;60.13;99167.53;4935383;29;20231;-71
2022/08/29 01:26:01;;;;;;;2.25;1.60;;;;;;;16.96;60.04;99165.53;4935025;29;20049;-69
2022/08/29 01:28:31;;;;;;;2.25;1.70;;;;;;;16.87;60.25;99166.09;4934860;29;20416;-69
2022/08/29 01:31:05;;;;;;;2.72;1.67;;;;;;;16.77;60.39;99164.72;4918263;29;20048;-69
2022/08/29 01:33:48;;;;;;;2.20;1.50;;;;;;;16.74;60.60;99170.53;4910485;29;20122;-69
2022/08/29 01:36:19;;;;;;;1.47;1.17;;;;;;;16.74;60.85;99161.72;4904273;29;20079;-68
2022/08/29 01:38:46;;;;;;;1.17;1.08;;;;;;;16.74;60.92;99164.41;4918036;29;20043;-68
2022/08/29 01:41:13;;;;;;;1.40;1.00;;;;;;;16.75;60.54;99171.34;4934909;29;20396;-69
2022/08/29 01:43:47;;;;;;;1.50;1.35;;;;;;;16.70;60.33;99169.34;4917985;29;20036;-69
2022/08/29 01:46:18;;;;;;;1.63;1.40;;;;;;;16.67;60.46;99172.44;4917795;29;20048;-69
2022/08/29 01:48:45;;;;;;;2.30;1.30;;;;;;;16.66;60.30;99178.00;4934915;29;20051;-69
2022/08/29 01:51:13;;;;;;;1.10;1.00;;;;;;;16.64;60.96;99172.88;4934881;29;20046;-69
2022/08/29 01:53:40;;;;;;;1.77;1.33;;;;;;;16.66;60.93;99176.16;4934867;29;20473;-69
2022/08/29 01:56:17;;;;;;;1.00;0.90;;;;;;;16.66;60.44;99173.47;4934575;29;20062;-70
2022/08/29 01:58:46;;;;;;;1.77;1.60;;;;;;;16.64;60.25;99174.72;4933599;29;20055;-69
2022/08/29 02:01:17;;;;;;;2.45;1.50;;;;;;;16.52;60.42;99164.78;4934933;29;20040;-68
2022/08/29 02:03:47;;;;;;;3.30;1.88;;;;;;;16.45;60.17;99173.91;4909375;29;20052;-69
2022/08/29 02:06:14;;;;;;;2.08;1.73;;;;;;;16.33;60.77;99171.19;4910371;29;20496;-69
2022/08/29 02:08:42;;;;;;;1.65;1.52;;;;;;;16.28;61.19;99176.34;4934937;29;20051;-69
2022/08/29 02:11:11;;;;;;;2.28;2.00;;;;;;;16.29;61.42;99172.66;4934964;29;20059;-70
2022/08/29 02:13:40;;;;;;;3.05;2.13;;;;;;;16.27;61.09;99177.38;4938445;29;20043;-70
2022/08/29 02:16:07;;;;;;;2.42;1.73;;;;;;;16.21;61.39;99178.28;4905293;29;20051;-69
2022/08/29 02:18:34;;;;;;;2.65;2.05;;;;;;;16.15;61.73;99177.28;4938885;29;20047;-70
2022/08/29 02:21:01;;;;;;;2.13;1.90;;;;;;;16.13;61.90;99179.38;4938471;29;20039;-69
2022/08/29 02:23:28;;;;;;;2.55;1.90;;;;;;;16.15;61.88;99187.13;4938388;29;20053;-69
2022/08/29 02:25:57;;;;;;;2.53;1.45;;;;;;;16.15;62.27;99182.63;4938275;29;20047;-69
2022/08/29 02:28:24;;;;;;;1.77;1.40;;;;;;;16.18;61.72;99184.84;4938222;29;20047;-69
2022/08/29 02:30:52;;;;;;;1.60;1.50;;;;;;;16.19;62.07;99188.31;4938444;29;20055;-69
2022/08/29 02:33:23;;;;;;;1.48;1.20;;;;;;;16.18;61.97;99192.03;4930500;29;20048;-69
2022/08/29 02:35:50;;;;;;;0.90;0.90;;;;;;;16.18;61.75;99187.50;4930021;29;20040;-69
2022/08/29 02:38:17;;;;;;;1.10;1.00;;;;;;;16.19;62.10;99196.34;4938181;29;20043;-69
2022/08/29 02:40:47;;;;;;;1.10;0.95;;;;;;;16.19;61.85;99193.66;4938294;29;20056;-70
2022/08/29 02:43:16;;;;;;;1.33;1.23;;;;;;;16.17;62.00;99188.56;4938093;29;20044;-69
2022/08/29 02:45:44;;;;;;;2.88;1.65;;;;;;;16.09;62.13;99188.84;4938299;29;20044;-67
2022/08/29 02:48:12;;;;;;;1.50;1.40;;;;;;;16.10;62.32;99195.78;4921049;29;20043;-68
2022/08/29 02:50:46;;;;;;;1.30;1.20;;;;;;;16.09;62.13;99188.84;4921396;29;20492;-68
2022/08/29 02:53:15;;;;;;;1.13;1.05;;;;;;;16.10;62.31;99185.13;4921051;29;20051;-68
2022/08/29 02:55:42;;;;;;;1.60;1.48;;;;;;;16.10;62.01;99191.28;4920877;29;20050;-68
2022/08/29 02:58:08;;;;;;;1.70;1.60;;;;;;;16.08;61.66;99190.69;4937972;29;20044;-68
2022/08/29 03:00:35;;;;;;;1.83;1.45;;;;;;;16.02;61.93;99191.56;4938177;29;20137;-68
2022/08/29 03:03:03;;;;;;;2.95;1.80;;;;;;;15.98;62.05;99186.88;4913177;29;20580;-68
2022/08/29 03:05:33;;;;;;;2.08;1.60;;;;;;;15.93;62.23;99184.88;4930184;29;20050;-68
2022/08/29 03:08:03;;;;;;;2.80;1.67;;;;;;;15.91;62.44;99191.44;4937934;29;20127;-68
2022/08/29 03:10:30;;;;;;;2.33;1.88;;;;;;;15.90;62.57;99189.81;4937906;29;20048;-68
2022/08/29 03:12:57;;;;;;;2.10;1.90;;;;;;;15.85;62.41;99183.28;4905083;29;20073;-68
2022/08/29 03:15:24;;;;;;;2.13;1.70;;;;;;;15.80;62.75;99179.66;4920617;29;20511;-68
2022/08/29 03:17:50;;;;;;;2.85;1.60;;;;;;;15.78;62.88;99185.19;4937884;29;20051;-67
2022/08/29 03:20:19;;;;;;;2.45;1.60;;;;;;;15.76;62.78;99176.59;4937624;29;20608;-69
2022/08/29 03:22:46;;;;;;;2.53;1.92;;;;;;;15.76;62.42;99179.25;4937085;29;20044;-68
2022/08/29 03:25:14;;;;;;;2.10;1.90;;;;;;;15.73;61.93;99179.69;4937224;29;20054;-68
2022/08/29 03:27:40;;;;;;;2.63;1.90;;;;;;;15.63;62.21;99173.97;4937652;29;20515;-68
2022/08/29 03:30:10;;;;;;;2.38;1.90;;;;;;;15.52;62.19;99172.84;4920513;29;20063;-68
2022/08/29 03:32:37;;;;;;;2.78;2.17;;;;;;;15.47;62.27;99169.16;4930537;29;20066;-68
2022/08/29 03:35:05;;;;;;;2.22;1.92;;;;;;;15.43;62.59;99167.97;4928686;29;20036;-69
2022/08/29 03:37:32;;;;;;;3.97;2.47;;;;;;;15.41;62.15;99170.84;4936807;29;20507;-68
2022/08/29 03:39:59;;;;;;;3.58;2.40;;;;;;;15.40;61.99;99179.06;4937108;29;20067;-68
2022/08/29 03:42:26;;;;;;;3.45;2.47;;;;;;;15.33;62.29;99173.78;4919942;29;20055;-69
2022/08/29 03:44:52;;;;;;;2.70;2.28;;;;;;;15.31;61.93;99175.84;4920067;29;20054;-68
2022/08/29 03:47:19;;;;;;;5.25;2.38;;;;;;;15.27;62.27;99174.66;4937018;29;20043;-68
2022/08/29 03:49:46;;;;;;;3.03;2.20;;;;;;;15.24;62.28;99170.56;4919803;29;20047;-68
2022/08/29 03:52:12;;;;;;;2.25;1.70;;;;;;;15.24;61.88;99169.75;4904195;29;20054;-69
2022/08/29 03:54:39;;;;;;;2.05;1.67;;;;;;;15.22;62.30;99169.13;4936774;29;20066;-69
2022/08/29 03:57:06;;;;;;;2.00;1.80;;;;;;;15.17;61.83;99171.63;4936455;29;20052;-69
2022/08/29 03:59:33;;;;;;;1.17;1.08;;;;;;;15.15;62.14;99173.69;4903871;29;20496;-69
2022/08/29 04:02:00;;;;;;;1.88;1.50;;;;;;;15.18;62.72;99174.06;5355202;23;20052;-66
2022/08/29 04:07:13;;;;;;;1.20;1.10;;;;;;;15.21;62.79;99173.63;4928846;29;20070;-66
2022/08/29 04:09:40;;;;;;;0.98;0.90;;;;;;;15.30;62.99;99175.00;4919370;29;20048;-66
2022/08/29 04:12:10;;;;;;;1.10;1.02;;;;;;;15.41;62.66;99175.38;4936576;29;20072;-66
2022/08/29 04:14:40;;;;;;;2.28;1.20;;;;;;;15.49;62.66;99175.13;4936420;29;20047;-66
2022/08/29 04:17:09;;;;;;;1.33;1.23;;;;;;;15.59;62.28;99176.28;4919508;29;20139;-65
2022/08/29 04:19:36;;;;;;;1.48;1.10;;;;;;;15.63;62.09;99178.50;4936029;29;20060;-66
2022/08/29 04:22:04;;;;;;;1.98;1.50;;;;;;;15.62;62.34;99177.69;4919184;29;20047;-66
2022/08/29 04:24:31;;;;;;;2.20;1.60;;;;;;;15.65;62.00;99179.94;4936260;29;20482;-66
2022/08/29 04:26:58;;;;;;;4.63;2.20;;;;;;;15.68;61.72;99184.03;4935872;29;20044;-66
2022/08/29 04:29:25;;;;;;;2.30;2.10;;;;;;;15.68;61.77;99174.19;4923280;29;20055;-66
2022/08/29 04:31:52;;;;;;;3.53;2.10;;;;;;;15.71;61.54;99179.06;4923908;29;20048;-66
2022/08/29 04:34:20;;;;;;;3.55;1.90;;;;;;;15.70;61.91;99176.63;4950137;28;20050;-66
2022/08/29 04:36:47;;;;;;;2.85;1.67;;;;;;;15.71;61.54;99178.25;4959165;28;20422;-66
2022/08/29 04:39:14;;;;;;;1.83;1.50;;;;;;;15.73;62.12;99182.34;4942316;29;20103;-66
2022/08/29 04:41:42;;;;;;;1.63;1.50;;;;;;;15.75;61.25;99184.78;4959614;28;20051;-66
2022/08/29 04:44:11;;;;;;;2.65;1.98;;;;;;;15.73;61.56;99177.03;4959799;29;20053;-66
2022/08/29 04:46:38;;;;;;;1.95;1.52;;;;;;;15.75;61.61;99179.47;4924717;29;20047;-66
2022/08/29 04:49:04;;;;;;;2.53;1.85;;;;;;;15.76;61.75;99181.13;4957308;29;20083;-66
2022/08/29 04:51:34;;;;;;;2.47;2.00;;;;;;;15.76;61.45;99184.59;4939962;28;20132;-66
2022/08/29 04:54:01;;;;;;;2.67;1.75;;;;;;;15.76;61.61;99189.94;4955583;29;20047;-66
2022/08/29 04:56:28;;;;;;;1.70;1.60;;;;;;;15.83;61.83;99198.66;4954440;29;20043;-67
2022/08/29 04:58:55;;;;;;;2.05;1.60;;;;;;;15.90;61.56;99195.16;4954818;28;20047;-67
2022/08/29 05:01:23;;;;;;;2.72;2.40;;;;;;;15.91;60.88;99200.25;4937655;28;20047;-67
2022/08/29 05:03:54;;;;;;;5.22;2.95;;;;;;;15.91;61.46;99196.78;4946039;29;20051;-67
2022/08/29 05:06:22;;;;;;;3.25;2.45;;;;;;;15.91;60.76;99202.91;4954182;29;20075;-67
2022/08/29 05:08:51;;;;;;;2.22;1.85;;;;;;;15.89;61.24;99205.00;4954519;28;20416;-67
2022/08/29 05:11:27;;;;;;;2.28;1.90;;;;;;;15.94;61.10;99202.50;4937320;28;20443;-67
2022/08/29 05:13:54;;;;;;;2.55;2.13;;;;;;;15.98;61.14;99200.22;4954500;29;20039;-67
2022/08/29 05:16:21;;;;;;;3.35;2.53;;;;;;;15.98;60.87;99200.22;4954111;28;20039;-67
2022/08/29 05:18:47;;;;;;;3.70;2.00;;;;;;;15.99;61.14;99191.97;4954486;28;20047;-67
2022/08/29 05:21:26;;;;;;;3.30;2.38;;;;;;;16.02;60.70;99182.75;4954261;28;20447;-67
2022/08/29 05:23:55;;;;;;;3.88;2.40;;;;;;;16.07;60.70;99194.38;4937109;29;20561;-67
2022/08/29 05:26:23;;;;;;;2.95;1.90;;;;;;;16.10;60.01;99195.78;4936752;29;20070;-67
2022/08/29 05:28:50;;;;;;;2.97;1.90;;;;;;;16.14;60.47;99201.50;4921378;29;20043;-67
2022/08/29 05:31:17;;;;;;;3.50;2.20;;;;;;;16.18;60.03;99200.03;4953974;28;20093;-64
2022/08/29 05:33:44;;;;;;;2.60;2.13;;;;;;;16.20;59.67;99195.28;4928022;29;20527;-66
2022/08/29 05:36:11;;;;;;;3.45;2.13;;;;;;;16.23;59.79;99193.00;4936219;29;20518;-66
2022/08/29 05:38:37;;;;;;;2.33;1.95;;;;;;;16.34;59.67;99196.81;4936659;29;20518;-65
2022/08/29 05:41:05;;;;;;;4.00;2.10;;;;;;;16.40;58.84;99195.91;4936455;29;20047;-67
2022/08/29 05:43:33;;;;;;;2.85;2.05;;;;;;;16.42;58.42;99201.03;4954015;29;20079;-67
2022/08/29 05:46:05;;;;;;;1.95;1.40;;;;;;;16.45;58.19;99201.44;4936513;29;20541;-65
2022/08/29 05:48:33;;;;;;;1.90;1.70;;;;;;;16.49;57.80;99204.44;4953430;29;20492;-66
2022/08/29 05:51:01;;;;;;;2.40;1.42;;;;;;;16.56;58.08;99207.88;4936439;29;20638;-66
2022/08/29 05:53:27;;;;;;;2.25;2.03;;;;;;;16.67;57.93;99211.66;4953539;28;20047;-66
2022/08/29 05:55:54;;;;;;;2.88;1.98;;;;;;;16.78;57.74;99213.63;4953334;28;20039;-66
2022/08/29 05:58:23;;;;;;;2.25;1.70;;;;;;;16.86;57.38;99217.84;4953456;28;20054;-66
2022/08/29 06:00:50;;;;;;;2.35;1.70;;;;;;;16.91;56.87;99215.34;4936700;29;20063;-66
2022/08/29 06:03:16;;;;;;;2.53;1.88;;;;;;;16.95;56.51;99217.31;4931945;29;20039;-67
2022/08/29 06:05:49;;;;;;;2.70;1.83;;;;;;;16.98;56.30;99221.38;4950808;28;20398;-66
2022/08/29 06:08:17;;;;;;;2.30;1.90;;;;;;;17.02;56.12;99220.75;4953710;28;20051;-66
2022/08/29 06:10:44;;;;;;;2.22;1.70;;;;;;;17.10;55.55;99222.25;4953830;28;20090;-66
2022/08/29 06:13:11;;;;;;;2.22;1.98;;;;;;;17.15;55.31;99214.41;4953821;28;20055;-66
2022/08/29 06:15:42;;;;;;;2.72;1.63;;;;;;;17.18;54.78;99219.28;4936501;29;20043;-66
2022/08/29 06:18:09;;;;;;;1.92;1.35;;;;;;;17.19;54.44;99220.94;4953390;29;20054;-66
2022/08/29 06:20:37;;;;;;;2.03;1.60;;;;;;;17.27;54.63;99217.16;4936589;29;20051;-66
2022/08/29 06:23:03;;;;;;;2.95;2.00;;;;;;;17.37;54.49;99219.25;4936559;29;20047;-66
2022/08/29 06:25:30;;;;;;;2.15;1.30;;;;;;;17.49;54.42;99220.94;4953652;28;20452;-67
2022/08/29 06:28:06;;;;;;;3.53;1.98;;;;;;;17.67;54.43;99216.56;4953462;29;20051;-66
2022/08/29 06:30:33;;;;;;;2.90;1.95;;;;;;;17.85;53.87;99218.41;4953723;28;20047;-66
2022/08/29 06:33:00;;;;;;;3.67;1.90;;;;;;;18.00;53.38;99226.78;4950820;28;20066;-67
2022/08/29 06:35:27;;;;;;;2.70;1.70;;;;;;;18.12;52.75;99219.59;4931109;29;20503;-68
2022/08/29 06:37:54;;;;;;;2.55;1.63;;;;;;;18.29;52.70;99220.53;4936162;29;20055;-66
2022/08/29 06:40:21;;;;;;;3.45;1.50;;;;;;;18.45;52.14;99224.38;4953514;29;20495;-66
2022/08/29 06:42:47;;;;;;;2.35;1.60;;;;;;;18.56;51.75;99230.75;4936346;29;20051;-66
2022/08/29 06:45:14;;;;;;;3.40;1.80;;;;;;;18.71;51.77;99227.66;4936846;29;20047;-66
2022/08/29 06:47:40;;;;;;;2.88;1.50;;;;;;;18.93;51.43;99235.88;4936086;29;20135;-66
2022/08/29 06:50:07;;;;;;;3.55;2.75;;;;;;;19.10;50.49;99233.25;4953467;28;20158;-67
2022/08/29 06:52:34;;;;;;;3.33;2.13;;;;;;;19.28;50.61;99231.22;4953469;28;20105;-67
2022/08/29 06:55:01;;;;;;;5.88;3.42;;;;;;;19.47;50.24;99229.19;4953379;29;20065;-66
2022/08/29 06:57:28;;;;;;;4.28;2.30;;;;;;;19.59;49.60;99230.97;4937815;29;20047;-67
2022/08/29 06:59:54;;;;;;;3.33;2.40;;;;;;;19.70;49.29;99225.59;4956981;29;20472;-67
2022/08/29 07:02:21;;;;;;;5.68;2.38;;;;;;;19.78;48.66;99225.19;4938937;29;20065;-67
2022/08/29 07:04:48;;;;;;;2.67;1.65;;;;;;;19.80;48.33;99227.66;4931804;29;20039;-68
2022/08/29 07:07:14;;;;;;;3.88;1.27;;;;;;;19.75;47.83;99230.22;4956637;28;20047;-66
2022/08/29 07:09:42;;;;;;;2.33;1.70;;;;;;;19.69;48.07;99231.19;4956705;28;20051;-66
2022/08/29 07:12:09;;;;;;;2.15;1.40;;;;;;;19.69;47.53;99232.00;4939526;29;20130;-66
2022/08/29 07:14:35;;;;;;;3.55;1.58;;;;;;;19.72;47.73;99231.53;4923588;29;20051;-66
2022/08/29 07:17:02;;;;;;;2.92;1.45;;;;;;;19.74;47.23;99232.09;4956199;29;20050;-67
2022/08/29 07:19:29;;;;;;;4.30;1.65;;;;;;;19.81;48.00;99226.59;4956802;28;20373;-67
2022/08/29 07:21:57;;;;;;;3.75;1.95;;;;;;;19.89;47.62;99236.09;4956570;28;20411;-67
2022/08/29 07:24:24;;;;;;;3.42;1.90;;;;;;;20.00;47.28;99233.34;4957317;29;20064;-67
2022/08/29 07:26:51;;;;;;;2.10;1.55;;;;;;;20.16;47.22;99220.16;4939383;29;20050;-67
2022/08/29 07:29:19;;;;;;;1.45;1.17;;;;;;;20.28;46.78;99219.00;4939622;29;20043;-68
2022/08/29 07:31:47;;;;;;;3.20;1.80;;;;;;;20.41;46.77;99215.19;4956189;28;20098;-67
2022/08/29 07:34:14;;;;;;;2.88;1.52;;;;;;;20.51;46.39;99215.34;4931374;29;20047;-67
2022/08/29 07:36:41;;;;;;;4.13;2.00;;;;;;;20.56;46.12;99219.16;4956005;29;20047;-67
2022/08/29 07:39:10;;;;;;;3.25;1.77;;;;;;;20.60;45.84;99226.47;4939233;29;20411;-67
2022/08/29 07:41:38;;;;;;;2.95;1.80;;;;;;;20.60;45.76;99231.03;4956132;28;20163;-68
2022/08/29 07:44:05;;;;;;;3.58;1.75;;;;;;;20.62;45.50;99229.75;4939107;29;20486;-67
2022/08/29 07:46:32;;;;;;;2.53;1.58;;;;;;;20.61;45.57;99233.47;4956277;29;20049;-67
2022/08/29 07:48:59;;;;;;;2.60;1.42;;;;;;;20.64;45.22;99227.63;4957131;29;20047;-67
2022/08/29 07:51:27;;;;;;;3.75;1.83;;;;;;;20.70;45.51;99231.19;4939328;28;20051;-67
2022/08/29 07:53:55;;;;;;;4.63;1.80;;;;;;;20.78;45.51;99228.09;4939201;29;20576;-68
2022/08/29 07:56:28;;;;;;;2.72;1.45;;;;;;;20.84;45.34;99223.59;4923294;29;20051;-68
2022/08/29 07:58:58;;;;;;;4.90;1.83;;;;;;;20.88;45.31;99222.81;4938833;29;20070;-66
2022/08/29 08:01:25;;;;;;;1.77;1.38;;;;;;;20.90;45.13;99222.56;4939144;28;20058;-66
2022/08/29 08:03:53;;;;;;;2.00;1.52;;;;;;;20.96;45.21;99218.91;4947758;29;20083;-66
2022/08/29 08:06:22;;;;;;;2.30;1.70;;;;;;;21.05;45.08;99216.56;4940557;29;20035;-67
2022/08/29 08:08:53;;;;;;;2.03;1.40;;;;;;;21.18;44.90;99219.69;4958553;28;20114;-66
2022/08/29 08:11:22;;;;;;;2.25;1.70;;;;;;;21.33;44.73;99224.47;4924077;28;20466;-66
2022/08/29 08:13:51;;;;;;;2.03;1.42;;;;;;;21.44;44.65;99222.69;4956069;29;20043;-67
2022/08/29 08:16:20;;;;;;;4.80;1.90;;;;;;;21.45;44.18;99229.69;4955454;29;20128;-67
2022/08/29 08:18:47;;;;;;;4.20;1.80;;;;;;;21.43;44.40;99227.28;4938343;29;20396;-66
2022/08/29 08:21:14;;;;;;;3.67;2.08;;;;;;;21.44;44.42;99220.00;4955781;28;20047;-67
2022/08/29 08:23:41;;;;;;;3.72;1.75;;;;;;;21.51;44.09;99234.88;4955556;29;20050;-67
2022/08/29 08:26:10;;;;;;;2.40;1.70;;;;;;;21.60;44.31;99239.81;4922896;29;20046;-66
2022/08/29 08:28:37;;;;;;;3.53;2.03;;;;;;;21.64;43.70;99239.03;4939043;29;20051;-67
2022/08/29 08:31:05;;;;;;;3.42;1.73;;;;;;;21.72;44.10;99240.47;4939448;29;20055;-66
2022/08/29 08:33:34;;;;;;;1.90;1.65;;;;;;;21.79;43.79;99249.13;4932037;29;20047;-66
2022/08/29 08:36:03;;;;;;;2.65;1.65;;;;;;;21.85;43.71;99245.44;4955039;29;20114;-67
2022/08/29 08:38:30;;;;;;;2.38;1.42;;;;;;;21.92;43.85;99243.34;4938793;28;20047;-67
2022/08/29 08:41:04;;;;;;;3.10;2.05;;;;;;;21.98;43.31;99247.69;4940037;29;20100;-67
2022/08/29 08:43:44;;;;;;;4.57;2.10;;;;;;;22.00;43.09;99245.56;4941094;29;20407;-67
2022/08/29 08:46:11;;;;;;;2.60;1.98;;;;;;;22.10;43.13;99247.53;4959457;28;20047;-67
2022/08/29 08:48:39;;;;;;;2.33;1.70;;;;;;;22.19;43.11;99248.69;4941386;29;20114;-66
2022/08/29 08:51:13;;;;;;;1.73;1.35;;;;;;;22.31;43.15;99245.00;4938206;29;20046;-66
2022/08/29 08:53:47;;;;;;;2.30;1.65;;;;;;;22.49;42.79;99244.59;4955047;29;20051;-67
2022/08/29 08:56:32;;;;;;;;;;;;;;;22.58;42.72;99244.94;4958101;29;20050;-67
2022/08/29 08:59:14;;;;;;;3.58;1.95;;;;;;;22.59;42.55;99244.66;4926173;29;19962;-67
2022/08/29 09:02:17;;;;;;;3.58;1.95;;;;;;;22.63;42.05;99251.16;4962623;28;20051;-67
2022/08/29 09:04:51;;;;;;;2.40;1.70;;;;;;;22.69;42.45;99252.78;4921336;29;20074;-67
2022/08/29 09:07:55;;;;;;;2.47;1.70;;;;;;;22.78;42.04;99255.00;4945545;29;20404;-67
2022/08/29 09:10:47;;;;;;;2.95;2.10;;;;;;;22.81;41.44;99249.09;4943862;29;20043;-67
2022/08/29 09:13:39;;;;;;;4.05;2.35;;;;;;;22.84;41.86;99249.38;4939564;29;20146;-67
2022/08/29 09:16:22;;;;;;;3.90;1.85;;;;;;;22.94;41.44;99246.78;4955629;28;20131;-68
2022/08/29 09:18:50;;;;;;;4.38;1.98;;;;;;;22.93;41.61;99244.34;4955478;28;20054;-67
2022/08/29 09:21:23;;;;;;;8.52;2.20;;;;;;;22.87;41.40;99243.47;4955346;28;20051;-68
2022/08/29 09:24:13;;;;;;;2.38;1.77;;;;;;;22.93;41.63;99244.34;4954469;28;20061;-68
2022/08/29 09:26:39;;;;;;;3.50;2.35;;;;;;;23.00;41.47;99239.50;4937287;29;20138;-67
2022/08/29 09:29:08;;;;;;;3.13;2.33;;;;;;;23.10;41.28;99249.53;4954618;29;20047;-67
2022/08/29 09:31:36;;;;;;;5.25;3.30;;;;;;;23.22;41.33;99245.53;4954365;28;20385;-67
2022/08/29 09:34:07;;;;;;;3.67;2.28;;;;;;;23.40;41.15;99246.94;4945711;28;20534;-67
2022/08/29 09:36:47;;;;;;;3.97;2.47;;;;;;;23.53;40.41;99251.00;4937856;29;20040;-68
2022/08/29 09:39:24;;;;;;;3.08;1.95;;;;;;;23.58;40.58;99245.63;4937825;29;20118;-67
2022/08/29 09:41:58;;;;;;;3.03;1.98;;;;;;;23.65;39.88;99243.50;4954329;28;20129;-68
2022/08/29 09:44:29;;;;;;;3.97;2.00;;;;;;;23.75;40.32;99244.59;4936871;29;20599;-67
2022/08/29 09:47:18;;;;;;;3.92;2.28;;;;;;;23.77;39.71;99243.25;4936732;29;20047;-68
2022/08/29 09:50:08;;;;;;;7.15;2.80;;;;;;;23.78;38.57;99242.19;4937015;29;20051;-67
2022/08/29 09:52:50;;;;;;;2.35;1.70;;;;;;;23.85;39.65;99236.53;4954466;28;20475;-68
2022/08/29 09:55:41;;;;;;;3.08;2.13;;;;;;;23.88;39.57;99233.28;4937021;29;20559;-67
2022/08/29 09:58:19;;;;;;;3.28;2.50;;;;;;;23.95;39.26;99231.94;4921435;29;20499;-67
2022/08/29 10:01:10;;;;;;;4.03;2.15;;;;;;;23.88;38.58;99231.41;4937169;29;20061;-65
2022/08/29 10:03:41;;;;;;;3.22;1.90;;;;;;;23.96;38.80;99217.38;4929292;29;20040;-67
2022/08/29 10:06:18;;;;;;;3.42;1.90;;;;;;;24.09;38.55;99223.31;4915760;29;20036;-66
2022/08/29 10:09:06;;;;;;;3.40;1.70;;;;;;;24.20;38.11;99214.91;4915949;29;20468;-66
2022/08/29 10:11:49;;;;;;;3.28;1.75;;;;;;;24.31;38.16;99210.31;4915804;29;20139;-67
2022/08/29 10:14:32;;;;;;;3.75;1.67;;;;;;;24.44;37.65;99211.66;4916297;29;20501;-68
2022/08/29 10:19:50;;;;;;;3.03;1.90;;;;;;;24.62;37.08;99213.78;4934426;29;20137;-69
2022/08/29 10:22:32;;;;;;;3.20;1.90;;;;;;;24.54;35.61;99214.34;4918252;29;20047;-68
2022/08/29 10:25:16;;;;;;;2.20;1.65;;;;;;;24.62;36.57;99211.09;4935399;29;20058;-69
2022/08/29 10:28:22;;;;;;;2.53;1.58;;;;;;;24.64;36.52;99195.38;4934503;29;20048;-70
2022/08/29 10:31:08;;;;;;;2.92;1.88;;;;;;;24.78;36.73;99194.78;4898298;29;20087;-69
2022/08/29 10:33:45;;;;;;;3.10;1.70;;;;;;;24.91;36.67;99192.31;4930281;29;20412;-70
2022/08/29 10:36:35;;;;;;;2.80;2.20;;;;;;;25.01;35.25;99186.06;4918822;29;20048;-69
2022/08/29 10:39:11;;;;;;;2.50;1.77;;;;;;;25.15;36.45;99183.59;4919283;29;20054;-70
2022/08/29 10:41:56;;;;;;;3.28;1.88;;;;;;;25.31;36.18;99184.28;4919184;29;20052;-70
2022/08/29 10:44:41;;;;;;;3.97;2.08;;;;;;;25.47;35.56;99190.41;4920686;29;20463;-69
2022/08/29 10:47:36;;;;;;;4.38;1.77;;;;;;;25.55;35.51;99177.09;4904950;29;20063;-69
2022/08/29 10:50:22;;;;;;;3.63;1.80;;;;;;;25.66;35.54;99175.94;4920051;29;20048;-68
2022/08/29 10:53:22;;;;;;;4.85;1.95;;;;;;;25.75;35.78;99178.03;4919064;29;20107;-68
2022/08/29 10:55:58;;;;;;;5.10;1.92;;;;;;;25.78;34.95;99178.31;4918711;29;20040;-69
2022/08/29 10:58:36;;;;;;;3.25;1.65;;;;;;;25.81;35.25;99174.25;4918985;29;20040;-69
2022/08/29 11:01:11;;;;;;;2.25;1.75;;;;;;;25.96;34.76;99170.56;4901899;29;20052;-68
2022/08/29 11:03:57;;;;;;;3.15;2.00;;;;;;;26.01;34.91;99175.97;4941386;29;20480;-69
2022/08/29 11:06:29;;;;;;;2.50;1.98;;;;;;;26.01;34.57;99173.25;4918094;29;20398;-69
2022/08/29 11:09:15;;;;;;;2.13;1.92;;;;;;;26.02;34.67;99166.75;4918446;29;20123;-69
2022/08/29 11:11:58;;;;;;;3.28;2.10;;;;;;;26.06;34.01;99168.59;4901421;29;20058;-68
2022/08/29 11:14:39;;;;;;;3.92;2.15;;;;;;;26.15;34.18;99164.16;4918577;29;20407;-68
2022/08/29 11:17:11;;;;;;;3.20;1.95;;;;;;;26.18;34.29;99155.47;4901012;29;20048;-69
2022/08/29 11:19:55;;;;;;;3.63;2.30;;;;;;;26.21;33.91;99156.81;4918104;29;20067;-69
2022/08/29 11:22:32;;;;;;;4.57;2.15;;;;;;;26.32;33.79;99155.56;4902492;29;20048;-69
2022/08/29 11:25:07;;;;;;;2.63;1.70;;;;;;;26.43;34.04;99157.09;4918786;29;20048;-70
2022/08/29 11:27:39;;;;;;;3.22;1.90;;;;;;;26.42;33.69;99152.78;4918225;29;20119;-69
2022/08/29 11:30:16;;;;;;;2.72;2.00;;;;;;;26.52;33.04;99151.06;4918286;29;20052;-69
2022/08/29 11:32:55;;;;;;;3.42;1.83;;;;;;;26.62;33.32;99145.53;4933738;29;20055;-69
2022/08/29 11:35:35;;;;;;;2.20;1.67;;;;;;;26.74;32.76;99145.09;4950145;29;20047;-69
2022/08/29 11:38:16;;;;;;;3.38;2.10;;;;;;;26.74;33.04;99137.78;4956336;29;20035;-69
2022/08/29 11:40:55;;;;;;;2.40;1.70;;;;;;;26.78;32.74;99133.41;4956272;28;20559;-68
2022/08/29 11:43:46;;;;;;;2.20;1.90;;;;;;;26.89;33.06;99134.06;4955451;28;20051;-70
2022/08/29 11:46:14;;;;;;;2.40;1.58;;;;;;;27.08;32.96;99137.59;4939294;29;20483;-69
2022/08/29 11:48:46;;;;;;;2.30;1.58;;;;;;;27.23;32.03;99127.63;4955647;28;20047;-70
2022/08/29 11:51:49;;;;;;;3.22;1.85;;;;;;;27.25;31.74;99123.53;4955973;28;20052;-70
2022/08/29 11:54:25;;;;;;;2.40;1.98;;;;;;;27.28;32.01;99120.25;4893614;29;20082;-70
2022/08/29 11:57:01;;;;;;;3.70;2.10;;;;;;;27.26;31.84;99105.34;4955413;28;20043;-70
2022/08/29 11:59:55;;;;;;;2.92;1.80;;;;;;;27.24;31.24;99110.28;4938526;29;20051;-69